Airport View

Enter AWOS ICAO identifier for current METAR.

ex. KFNL

KTSP 300405Z AUTO 13003KT 10SM CLR 07/M13 A3018 RMK AO2

30 Oct 2020 04:08

Frequency: 120.025

Phone: 661-823-0473

Other Area AWOS: KMHV - KWJF - KSDB - KEDW

TAF KWJF 292331Z 3000/3024 06006KT P6SM SKC FM300100 29006KT P6SM SKC FM300600 VRB03KT P6SM SKC